aviador You're here:

SCSE Decoded Metar

LA SERENA in CHILE
Report Time2018-07-20 06:00:00
UTC Time2018-07-20 06:37:30
Flight Rules vfr VFR
Wind240° at 02 kt
W.Decomp.*RWY 29: 1.3 kt HW 1.6 kt LCW
W.Rank240° ranks 17
Current wind is below 240° avg. (4.3)
Visibility9999 m
Phenomena:N/A
Clouds:N/A
Expected CloudBase > 2,400 ft AGL from Temp-Dew spread
CeilingNone
Temp07°C (ISA -7)
Dew Point01°C (66% RH)
AAT4.5°C
QNH1025 hPa
Density Alt-682 ft
Elevation479 ft
Report Wrong Elevation
Raw Report
SCSE 200600Z 24002KT CAVOK 07/01 Q1025=

Extra information for SCSE:More info

Metar Taf Metar & Taf Last 4 Metars F.Rules Stats Wind Profile Meteogram Temp Stats Airport Information Weather charts Add Link Nearby VenuesMetar ALERT Operation Metar Decoded Social comments